TimePDT,TemperatureF,Dew PointF,Humidity,Sea Level PressureIn,VisibilityMPH,Wind Direction,Wind SpeedMPH,Gust SpeedMPH,PrecipitationIn,Events,Conditions,WindDirDegrees,DateUTC
12:53 AM,55.9,46.9,72,29.94,10.0,Calm,Calm,-,N/A,,Clear,0,2013-10-02 07:53:00
1:53 AM,55.9,46.9,72,29.94,10.0,Calm,Calm,-,N/A,,Clear,0,2013-10-02 08:53:00
2:53 AM,55.0,46.0,72,29.93,10.0,Calm,Calm,-,N/A,,Clear,0,2013-10-02 09:53:00
3:53 AM,54.0,46.0,75,29.94,10.0,Calm,Calm,-,N/A,,Clear,0,2013-10-02 10:53:00
4:53 AM,53.1,45.0,74,29.94,10.0,Calm,Calm,-,N/A,,Clear,0,2013-10-02 11:53:00
5:53 AM,52.0,44.1,74,29.95,10.0,Calm,Calm,-,N/A,,Clear,0,2013-10-02 12:53:00
6:53 AM,52.0,46.0,80,29.96,10.0,Calm,Calm,-,N/A,,Clear,0,2013-10-02 13:53:00
7:53 AM,55.0,48.0,77,29.96,10.0,Calm,Calm,-,N/A,,Clear,0,2013-10-02 14:53:00
8:53 AM,55.9,48.9,77,29.99,10.0,Calm,Calm,-,N/A,,Clear,0,2013-10-02 15:53:00
9:53 AM,62.1,48.9,62,30.00,10.0,Calm,Calm,-,N/A,,Clear,0,2013-10-02 16:53:00
10:53 AM,68.0,42.1,39,30.00,10.0,Variable,3.5,-,N/A,,Clear,0,2013-10-02 17:53:00
11:53 AM,73.0,42.1,33,29.99,10.0,Calm,Calm,-,N/A,,Clear,0,2013-10-02 18:53:00
12:53 PM,77.0,44.1,31,29.96,10.0,SW,4.6,-,N/A,,Clear,230,2013-10-02 19:53:00
1:53 PM,78.1,45.0,31,29.94,10.0,West,8.1,-,N/A,,Clear,260,2013-10-02 20:53:00
2:53 PM,81.0,42.1,25,29.92,10.0,WNW,11.5,-,N/A,,Clear,290,2013-10-02 21:53:00
3:53 PM,77.0,46.9,34,29.92,10.0,WNW,15.0,-,N/A,,Clear,290,2013-10-02 22:53:00
4:53 PM,75.0,45.0,34,29.93,10.0,WNW,13.8,-,N/A,,Clear,290,2013-10-02 23:53:00
5:53 PM,71.1,42.1,35,29.94,10.0,West,12.7,-,N/A,,Clear,270,2013-10-03 00:53:00
6:53 PM,64.9,46.0,50,29.95,10.0,SSE,5.8,-,N/A,,Clear,150,2013-10-03 01:53:00
7:53 PM,60.1,45.0,57,29.96,10.0,West,4.6,-,N/A,,Clear,280,2013-10-03 02:53:00
8:53 PM,60.1,46.9,62,29.97,10.0,SW,11.5,-,N/A,,Clear,230,2013-10-03 03:53:00
9:53 PM,59.0,46.9,64,29.99,10.0,WNW,6.9,-,N/A,,Clear,300,2013-10-03 04:53:00
10:53 PM,57.0,46.9,69,30.01,10.0,West,4.6,-,N/A,,Clear,280,2013-10-03 05:53:00
11:53 PM,57.0,46.0,67,30.00,10.0,NNE,3.5,-,N/A,,Clear,30,2013-10-03 06:53:00